createdAt,value
2023-08-10T00:01:21.839Z,10.20
2023-08-10T00:03:48.557Z,10.25
2023-08-10T00:06:15.432Z,10.02
2023-08-10T00:08:42.030Z,10.08
2023-08-10T00:11:08.595Z,10.29
2023-08-10T00:13:35.083Z,10.01
2023-08-10T00:16:01.634Z,10.06
2023-08-10T00:18:28.183Z,10.09
2023-08-10T00:20:54.743Z,10.13
2023-08-10T00:23:21.381Z,10.01
2023-08-10T00:25:49.002Z,10.09
2023-08-10T00:28:16.570Z,10.05
2023-08-10T00:30:43.143Z,10.04
2023-08-10T00:33:12.881Z,9.93
2023-08-10T00:35:44.443Z,10.10
2023-08-10T00:38:10.938Z,10.06
2023-08-10T00:40:37.824Z,10.05
2023-08-10T00:43:04.588Z,9.90
2023-08-10T00:45:31.237Z,9.84
2023-08-10T00:47:58.176Z,9.96
2023-08-10T00:50:25.426Z,10.04
2023-08-10T00:52:52.085Z,10.02
2023-08-10T00:55:18.704Z,9.86
2023-08-10T00:57:45.261Z,9.90
2023-08-10T01:00:12.511Z,9.84
2023-08-10T01:02:40.573Z,9.85
2023-08-10T01:05:13.623Z,9.96
2023-08-10T01:07:56.328Z,9.92
2023-08-10T01:10:46.837Z,9.79
2023-08-10T01:13:14.686Z,10.01
2023-08-10T01:16:04.098Z,9.98
2023-08-10T01:18:30.674Z,9.90
2023-08-10T01:20:57.863Z,9.74
2023-08-10T01:23:39.108Z,9.80
2023-08-10T01:26:05.805Z,9.88
2023-08-10T01:28:34.137Z,9.81
2023-08-10T01:31:01.405Z,9.67
2023-08-10T01:33:28.459Z,9.61
2023-08-10T01:35:55.009Z,9.48
2023-08-10T01:38:21.581Z,9.60
2023-08-10T01:40:52.571Z,9.69
2023-08-10T01:43:19.199Z,9.81
2023-08-10T01:45:47.036Z,9.65
2023-08-10T01:48:16.478Z,9.48
2023-08-10T01:50:44.107Z,9.51
2023-08-10T01:53:12.947Z,9.60
2023-08-10T01:55:40.273Z,9.54
2023-08-10T01:58:06.863Z,9.51
2023-08-10T02:00:34.640Z,9.65
2023-08-10T02:03:01.277Z,9.44
2023-08-10T02:05:27.845Z,9.55
2023-08-10T02:07:54.446Z,9.31
2023-08-10T02:10:21.052Z,9.29
2023-08-10T02:12:47.621Z,9.37
2023-08-10T02:15:14.228Z,9.64
2023-08-10T02:17:42.294Z,9.53
2023-08-10T02:20:13.558Z,9.40
2023-08-10T02:22:49.667Z,9.36
2023-08-10T02:25:16.927Z,9.40
2023-08-10T02:27:43.554Z,9.31
2023-08-10T02:30:11.004Z,9.20
2023-08-10T02:32:38.028Z,9.44
2023-08-10T02:35:05.790Z,9.43
2023-08-10T02:37:32.900Z,9.23
2023-08-10T02:39:59.913Z,9.27
2023-08-10T02:42:27.216Z,9.39
2023-08-10T02:44:53.758Z,9.21
2023-08-10T02:47:20.395Z,9.38
2023-08-10T02:49:46.975Z,9.11
2023-08-10T02:52:13.610Z,9.21
2023-08-10T02:54:40.171Z,9.21
2023-08-10T02:57:06.748Z,9.49
2023-08-10T02:59:33.389Z,9.53
2023-08-10T03:02:00.067Z,9.18
2023-08-10T03:04:26.686Z,9.34
2023-08-10T03:06:53.287Z,9.38
2023-08-10T03:09:19.876Z,9.04
2023-08-10T03:11:46.501Z,9.19
2023-08-10T03:14:13.093Z,9.21
2023-08-10T03:16:39.756Z,9.03
2023-08-10T03:19:06.543Z,9.23
2023-08-10T03:21:33.172Z,9.09
2023-08-10T03:23:59.798Z,9.16
2023-08-10T03:26:26.411Z,8.98
2023-08-10T03:28:53.133Z,9.16
2023-08-10T03:31:19.764Z,9.16
2023-08-10T03:33:46.348Z,9.08
2023-08-10T03:36:13.017Z,9.21
2023-08-10T03:38:39.801Z,9.28
2023-08-10T03:41:07.003Z,9.15
2023-08-10T03:43:33.607Z,9.23
2023-08-10T03:46:03.472Z,9.08
2023-08-10T03:48:30.065Z,9.11
2023-08-10T03:50:56.650Z,9.08
2023-08-10T03:53:23.218Z,9.10
2023-08-10T03:55:49.823Z,9.17
2023-08-10T03:58:16.423Z,9.12
2023-08-10T04:00:46.290Z,9.25
2023-08-10T04:03:13.466Z,8.96
2023-08-10T04:05:40.295Z,9.20
2023-08-10T04:08:10.161Z,9.28
2023-08-10T04:10:36.823Z,9.22
2023-08-10T04:13:03.438Z,9.27
2023-08-10T04:15:32.138Z,9.36
2023-08-10T04:17:58.929Z,9.20
2023-08-10T04:20:25.971Z,9.20
2023-08-10T04:22:53.891Z,9.15
2023-08-10T04:25:20.733Z,9.26
2023-08-10T04:27:47.297Z,9.15
2023-08-10T04:30:14.433Z,9.25
2023-08-10T04:32:41.772Z,9.08
2023-08-10T04:35:09.373Z,9.06
2023-08-10T04:37:36.097Z,9.10
2023-08-10T04:40:06.216Z,9.31
2023-08-10T04:42:33.117Z,9.28
2023-08-10T04:44:59.943Z,9.15
2023-08-10T04:47:26.650Z,9.04
2023-08-10T04:49:53.269Z,9.36
2023-08-10T04:52:19.904Z,9.12
2023-08-10T04:54:46.503Z,9.25
2023-08-10T04:57:13.085Z,9.25
2023-08-10T04:59:39.699Z,9.25
2023-08-10T05:02:06.620Z,9.21
2023-08-10T05:04:33.646Z,9.10
2023-08-10T05:07:00.214Z,9.34
2023-08-10T05:09:26.773Z,9.32
2023-08-10T05:11:53.329Z,9.44
2023-08-10T05:14:19.866Z,9.54
2023-08-10T05:16:46.417Z,9.50
2023-08-10T05:19:13.005Z,9.29
2023-08-10T05:21:39.525Z,9.31
2023-08-10T05:24:06.597Z,9.43
2023-08-10T05:26:33.463Z,9.58
2023-08-10T05:29:00.026Z,9.38
2023-08-10T05:31:27.125Z,9.37
2023-08-10T05:33:53.790Z,9.52
2023-08-10T05:36:20.343Z,9.53
2023-08-10T05:38:46.897Z,9.73
2023-08-10T05:41:13.652Z,9.82
2023-08-10T05:43:40.965Z,9.85
2023-08-10T05:46:08.089Z,10.03
2023-08-10T05:48:34.725Z,10.03
2023-08-10T05:51:01.396Z,10.08
2023-08-10T05:53:28.219Z,10.11
2023-08-10T05:55:54.796Z,9.92
2023-08-10T05:58:21.410Z,10.22
2023-08-10T06:00:48.107Z,10.35
2023-08-10T06:03:16.147Z,10.41
2023-08-10T06:05:43.761Z,10.27
2023-08-10T06:08:10.370Z,10.43
2023-08-10T06:10:36.967Z,10.54
2023-08-10T06:13:03.552Z,10.74
2023-08-10T06:15:30.949Z,10.55
2023-08-10T06:17:58.161Z,10.75
2023-08-10T06:20:24.910Z,10.96
2023-08-10T06:22:51.490Z,10.95
2023-08-10T06:25:18.684Z,11.19
2023-08-10T06:27:45.693Z,11.43
2023-08-10T06:30:14.414Z,11.50
2023-08-10T06:32:41.262Z,11.43
2023-08-10T06:35:09.779Z,11.65
2023-08-10T06:37:37.582Z,11.74
2023-08-10T06:40:10.001Z,12.01
2023-08-10T06:42:37.126Z,12.42
2023-08-10T06:45:05.023Z,13.04
2023-08-10T06:47:32.126Z,13.52
2023-08-10T06:49:59.161Z,13.74
2023-08-10T06:52:25.786Z,14.20
2023-08-10T06:54:55.571Z,14.26
2023-08-10T06:57:22.117Z,14.39
2023-08-10T07:02:20.522Z,15.23
2023-08-10T07:04:47.105Z,15.49
2023-08-10T07:07:15.146Z,15.92
2023-08-10T07:09:42.450Z,16.81
2023-08-10T07:12:09.001Z,18.47
2023-08-10T07:14:38.254Z,20.48
2023-08-10T07:17:05.533Z,22.67
2023-08-10T07:35:09.749Z,31.12
2023-08-10T07:38:35.852Z,32.06
2023-08-10T07:41:32.500Z,32.72
2023-08-10T07:44:06.056Z,33.23
2023-08-10T07:46:34.044Z,33.78
2023-08-10T07:49:00.900Z,34.33
2023-08-10T07:51:27.400Z,35.00
2023-08-10T07:53:53.968Z,35.41
2023-08-10T07:56:20.737Z,35.93
2023-08-10T07:58:47.228Z,36.16
2023-08-10T08:01:15.363Z,36.67
2023-08-10T08:03:42.269Z,36.91
2023-08-10T08:06:09.705Z,37.37
2023-08-10T08:08:36.266Z,37.79
2023-08-10T08:11:02.987Z,38.14
2023-08-10T08:13:29.500Z,38.19
2023-08-10T08:15:58.238Z,38.20
2023-08-10T08:18:50.785Z,38.38
2023-08-10T08:21:21.445Z,38.52
2023-08-10T08:23:49.438Z,38.70
2023-08-10T08:26:16.030Z,39.07
2023-08-10T08:28:43.347Z,39.73
2023-08-10T08:31:10.057Z,39.66
2023-08-10T08:33:36.938Z,39.87
2023-08-10T08:36:03.727Z,39.88
2023-08-10T08:38:33.775Z,39.80
2023-08-10T08:41:05.033Z,40.40
2023-08-10T08:43:31.539Z,40.62
2023-08-10T08:45:58.873Z,40.84
2023-08-10T08:48:26.880Z,40.87
2023-08-10T08:50:53.362Z,41.11
2023-08-10T08:53:19.886Z,41.33
2023-08-10T08:55:47.855Z,41.34
2023-08-10T08:58:17.785Z,41.56
2023-08-10T09:00:51.721Z,41.57
2023-08-10T09:03:18.439Z,41.56
2023-08-10T09:05:45.925Z,41.65
2023-08-10T09:08:17.073Z,41.59
2023-08-10T09:10:44.468Z,41.44
2023-08-10T09:13:17.276Z,41.56
2023-08-10T09:15:44.303Z,41.48
2023-08-10T09:18:10.802Z,41.69
2023-08-10T09:20:37.425Z,41.57
2023-08-10T09:23:04.215Z,40.63
2023-08-10T09:25:41.390Z,38.33
2023-08-10T09:28:10.819Z,36.37
2023-08-10T09:37:51.778Z,32.01
2023-08-10T09:40:18.485Z,31.46
2023-08-10T09:42:45.023Z,30.74
2023-08-10T09:45:13.015Z,30.19
2023-08-10T09:47:40.897Z,29.79
2023-08-10T09:50:09.419Z,29.32
2023-08-10T09:52:37.215Z,28.97
2023-08-10T10:18:01.577Z,25.91
2023-08-10T10:20:28.726Z,25.63
2023-08-10T10:23:16.909Z,25.45
2023-08-10T10:45:08.669Z,24.79
2023-08-10T10:47:39.632Z,24.64
2023-08-10T10:50:19.768Z,24.63
2023-08-10T10:52:56.541Z,24.58
2023-08-10T10:55:27.335Z,24.58
2023-08-10T10:57:54.030Z,24.50
2023-08-10T11:00:21.949Z,24.67
2023-08-10T11:02:49.108Z,24.58
2023-08-10T11:05:17.289Z,24.46
2023-08-10T11:07:49.333Z,24.55
2023-08-10T11:10:19.960Z,24.51
2023-08-10T11:12:48.154Z,24.42
2023-08-10T11:15:15.031Z,24.42
2023-08-10T11:17:49.643Z,24.33
2023-08-10T11:20:17.132Z,24.31
2023-08-10T11:22:43.713Z,24.21
2023-08-10T11:25:17.637Z,24.30
2023-08-10T11:27:45.440Z,24.17
2023-08-10T11:30:14.461Z,24.16
2023-08-10T11:32:41.745Z,24.10
2023-08-10T11:35:13.669Z,24.00
2023-08-10T11:37:41.359Z,24.05
2023-08-10T11:40:15.174Z,23.90
2023-08-10T11:42:46.018Z,23.88
2023-08-10T11:45:18.023Z,23.91
2023-08-10T11:48:02.426Z,23.91
2023-08-10T11:50:31.094Z,23.80
2023-08-10T11:52:59.454Z,23.72
2023-08-10T11:55:28.816Z,23.55
2023-08-10T11:57:56.630Z,23.42
2023-08-10T12:00:27.278Z,23.32
2023-08-10T12:03:11.635Z,23.31
2023-08-10T12:05:46.255Z,23.35
2023-08-10T12:08:17.939Z,23.33
2023-08-10T12:10:46.336Z,23.32
2023-08-10T12:13:16.551Z,23.16
2023-08-10T12:15:47.819Z,23.10
2023-08-10T12:18:18.671Z,23.09
2023-08-10T12:20:47.841Z,23.02
2023-08-10T12:23:15.459Z,22.96
2023-08-10T12:25:42.237Z,22.92
2023-08-10T12:28:09.465Z,22.90
2023-08-10T12:30:36.099Z,22.83
2023-08-10T12:33:02.829Z,22.85
2023-08-10T12:35:29.338Z,22.71
2023-08-10T12:37:55.889Z,22.69
2023-08-10T12:40:22.397Z,22.78
2023-08-10T12:42:49.040Z,22.75
2023-08-10T12:45:15.854Z,22.80
2023-08-10T12:47:43.216Z,22.79
2023-08-10T12:50:10.911Z,22.75
2023-08-10T12:52:38.067Z,22.78
2023-08-10T12:55:04.793Z,22.52
2023-08-10T12:57:31.299Z,22.61
2023-08-10T12:59:59.473Z,22.58
2023-08-10T13:02:33.577Z,22.63
2023-08-10T13:05:00.984Z,22.57
2023-08-10T13:07:27.592Z,22.34
2023-08-10T13:09:54.066Z,22.38
2023-08-10T13:12:20.572Z,22.52
2023-08-10T13:14:47.098Z,22.41
2023-08-10T13:17:13.680Z,22.41
2023-08-10T13:19:40.248Z,22.45
2023-08-10T13:22:07.782Z,22.46
2023-08-10T13:24:35.073Z,22.36
2023-08-10T13:27:03.037Z,22.33
2023-08-10T13:29:30.558Z,22.41
2023-08-10T13:31:57.614Z,22.50
2023-08-10T13:34:24.487Z,22.40
2023-08-10T13:36:52.743Z,22.33
2023-08-10T13:39:19.527Z,22.37
2023-08-10T13:41:46.019Z,22.43
2023-08-10T13:44:12.630Z,22.33
2023-08-10T13:46:39.187Z,22.51
2023-08-10T13:49:05.683Z,22.44
2023-08-10T13:51:33.052Z,22.52
2023-08-10T13:53:59.551Z,22.63
2023-08-10T13:56:26.696Z,22.73
2023-08-10T13:58:53.260Z,22.77
2023-08-10T14:01:20.236Z,22.86
2023-08-10T14:03:46.857Z,22.83
2023-08-10T14:06:13.462Z,22.97
2023-08-10T14:08:40.010Z,23.05
2023-08-10T14:11:06.511Z,22.98
2023-08-10T14:13:33.092Z,22.88
2023-08-10T14:16:00.020Z,22.84
2023-08-10T14:18:26.747Z,22.77
2023-08-10T14:20:53.405Z,22.75
2023-08-10T14:23:20.117Z,22.62
2023-08-10T14:25:46.722Z,22.66
2023-08-10T14:28:13.248Z,22.67
2023-08-10T14:30:39.899Z,22.69
2023-08-10T14:33:06.571Z,22.69
2023-08-10T14:35:33.231Z,22.73
2023-08-10T14:38:01.921Z,22.80
2023-08-10T14:40:28.480Z,22.76
2023-08-10T14:42:55.090Z,22.80
2023-08-10T14:45:21.931Z,22.76
2023-08-10T14:47:59.236Z,22.77
2023-08-10T14:50:26.629Z,22.74
2023-08-10T14:52:56.190Z,22.71
2023-08-10T14:55:22.909Z,22.62
2023-08-10T14:57:50.495Z,22.62
2023-08-10T15:00:17.343Z,22.52
2023-08-10T15:02:47.548Z,22.58
2023-08-10T15:05:14.852Z,22.53
2023-08-10T15:07:41.772Z,22.50
2023-08-10T15:10:08.523Z,22.54
2023-08-10T15:12:35.069Z,22.48
2023-08-10T15:15:01.701Z,22.34
2023-08-10T15:17:28.274Z,22.18
2023-08-10T15:19:54.874Z,22.16
2023-08-10T15:22:21.437Z,22.10
2023-08-10T15:24:47.919Z,22.03
2023-08-10T15:27:14.402Z,21.92
2023-08-10T15:29:40.914Z,21.83
2023-08-10T15:32:07.626Z,21.91
2023-08-10T15:34:34.320Z,21.91
2023-08-10T15:37:00.867Z,21.89
2023-08-10T15:39:27.344Z,21.88
2023-08-10T15:41:53.805Z,21.86
2023-08-10T15:44:20.285Z,21.81
2023-08-10T15:46:46.754Z,21.81
2023-08-10T15:49:13.249Z,21.84
2023-08-10T15:51:39.763Z,21.86
2023-08-10T15:54:10.252Z,21.87
2023-08-10T15:56:36.752Z,21.86
2023-08-10T15:59:03.238Z,21.85
2023-08-10T16:01:31.502Z,21.83
2023-08-10T16:03:58.896Z,21.86
2023-08-10T16:06:25.556Z,21.80
2023-08-10T16:08:52.201Z,21.78
2023-08-10T16:11:21.490Z,21.60
2023-08-10T16:13:47.980Z,21.60
2023-08-10T16:16:14.509Z,21.66
2023-08-10T16:18:41.034Z,21.55
2023-08-10T16:21:07.513Z,21.53
2023-08-10T16:23:34.079Z,21.45
2023-08-10T16:26:00.556Z,21.51
2023-08-10T16:28:27.063Z,21.45
2023-08-10T16:30:53.578Z,21.30
2023-08-10T16:33:20.069Z,21.33
2023-08-10T16:35:46.591Z,21.34
2023-08-10T16:38:13.090Z,21.34
2023-08-10T16:40:39.567Z,21.26
2023-08-10T16:43:06.135Z,21.30
2023-08-10T16:45:32.697Z,21.16
2023-08-10T16:47:59.277Z,21.16
2023-08-10T16:50:25.878Z,21.21
2023-08-10T16:52:52.429Z,21.18
2023-08-10T16:55:19.281Z,21.09
2023-08-10T16:57:45.761Z,20.97
2023-08-10T17:00:13.591Z,21.02
2023-08-10T17:02:40.829Z,20.99
2023-08-10T17:05:08.037Z,20.98
2023-08-10T17:07:34.521Z,20.99
2023-08-10T17:10:01.037Z,20.98
2023-08-10T17:12:27.924Z,20.95
2023-08-10T17:14:54.429Z,20.82
2023-08-10T17:17:21.052Z,20.80
2023-08-10T17:19:47.546Z,20.73
2023-08-10T17:22:14.146Z,20.64
2023-08-10T17:24:40.648Z,20.66
2023-08-10T17:27:07.161Z,20.58
2023-08-10T17:29:33.644Z,20.54
2023-08-10T17:32:00.402Z,20.51
2023-08-10T17:34:26.945Z,20.34
2023-08-10T17:36:53.437Z,20.40
2023-08-10T17:39:19.919Z,20.35
2023-08-10T17:41:47.862Z,20.21
2023-08-10T17:44:14.468Z,20.17
2023-08-10T17:46:40.983Z,20.12
2023-08-10T17:49:07.481Z,20.11
2023-08-10T17:51:33.980Z,20.06
2023-08-10T17:54:00.458Z,19.87
2023-08-10T17:56:26.935Z,19.85
2023-08-10T17:58:53.436Z,19.73
2023-08-10T18:01:20.550Z,19.80
2023-08-10T18:03:52.061Z,19.75
2023-08-10T18:06:18.601Z,19.69
2023-08-10T18:08:45.072Z,19.59
2023-08-10T18:11:11.560Z,19.51
2023-08-10T18:13:38.052Z,19.38
2023-08-10T18:16:04.695Z,19.34
2023-08-10T18:18:31.177Z,19.09
2023-08-10T18:21:00.362Z,19.19
2023-08-10T18:23:29.307Z,19.17
2023-08-10T18:25:56.777Z,19.00
2023-08-10T18:28:23.248Z,19.07
2023-08-10T18:30:49.776Z,19.00
2023-08-10T18:33:16.388Z,18.90
2023-08-10T18:35:43.237Z,18.90
2023-08-10T18:38:09.726Z,18.83
2023-08-10T18:40:39.739Z,18.68
2023-08-10T18:43:06.471Z,18.64
2023-08-10T18:45:34.058Z,18.53
2023-08-10T18:48:00.686Z,18.48
2023-08-10T18:50:27.680Z,18.31
2023-08-10T18:52:54.376Z,18.26
2023-08-10T18:55:21.080Z,18.30
2023-08-10T18:57:47.768Z,18.17
2023-08-10T19:00:14.596Z,18.10
2023-08-10T19:02:44.178Z,18.02
2023-08-10T19:05:10.747Z,18.02
2023-08-10T19:07:38.465Z,17.91
2023-08-10T19:10:06.063Z,17.99
2023-08-10T19:12:34.411Z,17.83
2023-08-10T19:15:00.924Z,17.89
2023-08-10T19:17:27.470Z,17.87
2023-08-10T19:19:54.085Z,17.84
2023-08-10T19:22:20.722Z,17.73
2023-08-10T19:24:47.184Z,17.61
2023-08-10T19:27:13.680Z,17.62
2023-08-10T19:29:40.423Z,17.62
2023-08-10T19:32:07.291Z,17.56
2023-08-10T19:34:34.089Z,17.59
2023-08-10T19:37:00.585Z,17.45
2023-08-10T19:39:29.537Z,17.33
2023-08-10T19:41:57.598Z,17.29
2023-08-10T19:44:24.088Z,17.10
2023-08-10T19:46:50.571Z,17.03
2023-08-10T19:49:17.087Z,16.90
2023-08-10T19:51:43.573Z,16.74
2023-08-10T19:54:10.076Z,16.87
2023-08-10T19:56:36.627Z,16.84
2023-08-10T19:59:03.142Z,16.65
2023-08-10T20:01:29.661Z,16.61
2023-08-10T20:03:56.570Z,16.40
2023-08-10T20:06:23.827Z,16.12
2023-08-10T20:08:50.326Z,16.39
2023-08-10T20:11:16.862Z,16.32
2023-08-10T20:13:43.378Z,16.14
2023-08-10T20:16:09.910Z,16.10
2023-08-10T20:18:36.409Z,15.98
2023-08-10T20:21:02.911Z,15.91
2023-08-10T20:23:32.098Z,15.86
2023-08-10T20:25:59.649Z,15.78
2023-08-10T20:28:26.195Z,15.72
2023-08-10T20:30:52.758Z,15.60
2023-08-10T20:33:19.258Z,15.64
2023-08-10T20:35:46.524Z,15.50
2023-08-10T20:38:13.133Z,15.46
2023-08-10T20:40:39.748Z,15.56
2023-08-10T20:43:06.270Z,15.36
2023-08-10T20:45:32.769Z,15.44
2023-08-10T20:48:00.522Z,15.24
2023-08-10T20:50:27.842Z,15.28
2023-08-10T20:52:54.318Z,15.16
2023-08-10T20:55:21.008Z,15.19
2023-08-10T20:57:50.141Z,15.08
2023-08-10T21:00:17.225Z,15.08
2023-08-10T21:02:43.776Z,15.01
2023-08-10T21:05:10.326Z,14.89
2023-08-10T21:07:37.022Z,14.90
2023-08-10T21:10:03.629Z,14.85
2023-08-10T21:12:30.138Z,14.79
2023-08-10T21:14:56.705Z,14.72
2023-08-10T21:17:23.211Z,14.66
2023-08-10T21:19:49.731Z,14.57
2023-08-10T21:22:16.331Z,14.53
2023-08-10T21:24:42.821Z,14.43
2023-08-10T21:27:09.743Z,14.30
2023-08-10T21:29:42.117Z,14.42
2023-08-10T21:32:08.867Z,14.31
2023-08-10T21:34:35.403Z,14.30
2023-08-10T21:37:01.962Z,14.17
2023-08-10T21:39:28.501Z,14.14
2023-08-10T21:41:55.026Z,14.15
2023-08-10T21:44:21.510Z,14.06
2023-08-10T21:46:49.722Z,14.02
2023-08-10T21:49:16.260Z,14.03
2023-08-10T21:51:42.747Z,14.00
2023-08-10T21:54:09.244Z,13.92
2023-08-10T21:56:35.808Z,13.96
2023-08-10T21:59:02.295Z,13.70
2023-08-10T22:01:28.763Z,13.88
2023-08-10T22:03:55.247Z,13.90
2023-08-10T22:06:21.788Z,13.75
2023-08-10T22:08:48.298Z,13.88
2023-08-10T22:11:14.795Z,13.83
2023-08-10T22:13:41.333Z,13.77
2023-08-10T22:16:07.848Z,13.69
2023-08-10T22:18:35.730Z,13.68
2023-08-10T22:21:02.557Z,13.71
2023-08-10T22:23:29.149Z,13.61
2023-08-10T22:25:55.670Z,13.66
2023-08-10T22:28:22.170Z,13.72
2023-08-10T22:30:48.716Z,13.79
2023-08-10T22:33:15.257Z,13.71
2023-08-10T22:35:41.780Z,13.70
2023-08-10T22:38:08.254Z,13.68
2023-08-10T22:40:34.970Z,13.66
2023-08-10T22:43:02.374Z,13.67
2023-08-10T22:45:28.870Z,13.58
2023-08-10T22:47:55.379Z,13.54
2023-08-10T22:50:22.407Z,13.53
2023-08-10T22:52:48.925Z,13.49
2023-08-10T22:55:15.466Z,13.45
2023-08-10T22:57:41.968Z,13.42
2023-08-10T23:00:09.082Z,13.32
2023-08-10T23:02:35.670Z,13.27
2023-08-10T23:05:02.243Z,13.21
2023-08-10T23:07:28.762Z,13.22
2023-08-10T23:09:56.065Z,13.17
2023-08-10T23:12:25.948Z,13.05
2023-08-10T23:14:53.882Z,13.05
2023-08-10T23:17:20.415Z,13.06
2023-08-10T23:19:46.926Z,13.06
2023-08-10T23:22:13.402Z,12.92
2023-08-10T23:24:39.928Z,12.98
2023-08-10T23:27:06.442Z,13.00
2023-08-10T23:29:33.085Z,13.00
2023-08-10T23:32:00.372Z,12.98
2023-08-10T23:34:26.875Z,12.99
2023-08-10T23:36:53.537Z,12.97
2023-08-10T23:39:20.032Z,12.92
2023-08-10T23:41:46.546Z,13.01
2023-08-10T23:44:13.788Z,13.01
2023-08-10T23:46:40.521Z,12.98
2023-08-10T23:49:07.095Z,12.98
2023-08-10T23:51:33.569Z,13.01
2023-08-10T23:54:00.060Z,12.87
2023-08-10T23:56:26.560Z,12.93
2023-08-10T23:58:53.079Z,13.00
